createdAt,value
2019-04-21T00:00:56.871Z,62.61
2019-04-21T00:03:27.485Z,64.29
2019-04-21T00:06:15.762Z,65.90
2019-04-21T00:08:50.829Z,66.73
2019-04-21T00:11:20.692Z,68.03
2019-04-21T00:13:42.690Z,68.62
2019-04-21T00:16:03.385Z,68.38
2019-04-21T00:18:41.808Z,67.96
2019-04-21T00:21:11.031Z,68.42
2019-04-21T00:23:54.071Z,68.31
2019-04-21T00:26:23.823Z,68.96
2019-04-21T00:29:04.027Z,68.94
2019-04-21T00:31:27.094Z,69.77
2019-04-21T00:33:41.600Z,70.85
2019-04-21T00:36:16.705Z,70.83
2019-04-21T00:39:18.655Z,71.78
2019-04-21T00:41:29.665Z,72.62
2019-04-21T00:43:57.045Z,72.60
2019-04-21T00:46:30.763Z,74.08
2019-04-21T00:49:03.102Z,75.23
2019-04-21T00:51:49.718Z,75.85
2019-04-21T00:54:21.144Z,77.54
2019-04-21T00:56:54.202Z,78.20
2019-04-21T00:59:20.116Z,78.77
2019-04-21T01:01:49.120Z,78.85
2019-04-21T01:04:21.408Z,78.88
2019-04-21T01:06:53.098Z,79.10
2019-04-21T01:09:20.183Z,79.85
2019-04-21T01:11:59.612Z,81.41
2019-04-21T01:14:30.092Z,80.75
2019-04-21T01:16:57.397Z,81.37
2019-04-21T01:19:26.937Z,82.68
2019-04-21T01:21:36.951Z,83.60
2019-04-21T01:24:18.593Z,84.54
2019-04-21T01:26:52.487Z,84.18
2019-04-21T01:29:34.329Z,82.88
2019-04-21T01:32:05.151Z,82.78
2019-04-21T01:34:33.214Z,82.58
2019-04-21T01:36:58.886Z,83.26
2019-04-21T01:39:42.048Z,82.97
2019-04-21T01:42:11.267Z,84.47
2019-04-21T01:44:43.126Z,84.93
2019-04-21T01:47:06.087Z,85.34
2019-04-21T01:49:29.665Z,84.80
2019-04-21T01:52:24.738Z,85.42
2019-04-21T01:55:06.417Z,85.22
2019-04-21T01:57:45.188Z,86.09
2019-04-21T02:00:13.270Z,86.33
2019-04-21T02:02:59.493Z,87.26
2019-04-21T02:05:34.391Z,88.21
2019-04-21T02:07:55.083Z,88.37
2019-04-21T02:10:35.334Z,88.90
2019-04-21T02:12:58.252Z,89.15
2019-04-21T02:15:37.888Z,88.86
2019-04-21T02:17:59.701Z,88.69
2019-04-21T02:20:25.821Z,89.29
2019-04-21T02:25:38.441Z,89.11
2019-04-21T02:28:13.516Z,89.53
2019-04-21T02:31:02.955Z,89.49
2019-04-21T02:36:04.799Z,89.96
2019-04-21T02:38:34.430Z,89.95
2019-04-21T02:40:55.390Z,89.88
2019-04-21T02:43:25.530Z,90.35
2019-04-21T02:50:57.638Z,91.48
2019-04-21T02:58:44.119Z,92.48
2019-04-21T03:01:31.903Z,92.70
2019-04-21T03:04:00.612Z,93.27
2019-04-21T03:07:01.635Z,93.94
2019-04-21T03:09:33.516Z,92.23
2019-04-21T03:12:07.056Z,90.12
2019-04-21T03:14:35.835Z,91.69
2019-04-21T03:16:55.635Z,92.52
2019-04-21T03:19:48.204Z,92.62
2019-04-21T03:22:12.911Z,91.74
2019-04-21T03:25:04.258Z,91.83
2019-04-21T03:27:32.798Z,93.64
2019-04-21T03:32:31.015Z,93.19
2019-04-21T03:37:19.116Z,92.95
2019-04-21T03:39:46.927Z,93.20
2019-04-21T03:42:25.607Z,92.69
2019-04-21T03:44:45.735Z,93.36
2019-04-21T03:47:23.007Z,92.76
2019-04-21T03:52:27.825Z,93.52
2019-04-21T04:11:31.674Z,89.39
2019-04-21T04:19:09.311Z,91.31
2019-04-21T04:24:13.686Z,93.12
2019-04-21T04:26:33.117Z,94.16
2019-04-21T04:29:03.448Z,93.94
2019-04-21T04:31:37.626Z,94.44
2019-04-21T04:34:04.975Z,95.80
2019-04-21T04:36:47.434Z,96.06
2019-04-21T04:39:34.006Z,95.72
2019-04-21T04:47:15.830Z,96.46
2019-04-21T04:49:46.127Z,96.19
2019-04-21T04:52:26.292Z,96.84
2019-04-21T04:54:47.599Z,96.43
2019-04-21T04:57:18.267Z,97.36
2019-04-21T04:59:43.003Z,97.27
2019-04-21T05:07:13.845Z,97.84
2019-04-21T05:09:46.577Z,97.65
2019-04-21T05:12:11.585Z,98.11
2019-04-21T05:14:46.105Z,97.86
2019-04-21T05:17:30.634Z,97.57
2019-04-21T05:20:05.846Z,97.65
2019-04-21T05:22:22.956Z,96.67
2019-04-21T05:24:40.580Z,95.12
2019-04-21T05:27:08.744Z,94.52
2019-04-21T05:29:55.626Z,94.03
2019-04-21T05:32:40.266Z,93.28
2019-04-21T05:35:01.637Z,92.51
2019-04-21T05:37:28.622Z,91.02
2019-04-21T05:40:04.393Z,90.50
2019-04-21T05:42:30.292Z,89.58
2019-04-21T05:47:49.523Z,84.33
2019-04-21T05:50:12.333Z,85.37
2019-04-21T05:52:47.430Z,85.78
2019-04-21T05:55:34.107Z,85.17
2019-04-21T05:57:57.267Z,81.50
2019-04-21T06:00:55.958Z,82.01
2019-04-21T06:03:05.378Z,83.18
2019-04-21T06:05:42.515Z,81.02
2019-04-21T06:08:09.877Z,81.58
2019-04-21T06:10:41.960Z,79.89
2019-04-21T06:13:12.897Z,77.99
2019-04-21T06:15:52.596Z,76.03
2019-04-21T06:18:21.721Z,75.44
2019-04-21T06:20:46.677Z,76.99
2019-04-21T06:23:21.302Z,79.17
2019-04-21T06:28:22.684Z,80.68
2019-04-21T06:31:00.481Z,80.74
2019-04-21T06:33:19.870Z,73.98
2019-04-21T06:36:24.084Z,79.18
2019-04-21T06:39:00.029Z,67.59
2019-04-21T06:41:27.728Z,60.57
2019-04-21T06:43:56.646Z,59.69
2019-04-21T06:46:30.849Z,56.74
2019-04-21T06:51:27.445Z,59.68
2019-04-21T06:56:36.541Z,58.08
2019-04-21T06:59:00.833Z,56.03
2019-04-21T07:01:36.000Z,56.20
2019-04-21T07:04:11.506Z,55.86
2019-04-21T07:06:46.981Z,57.10
2019-04-21T07:09:16.026Z,59.64
2019-04-21T07:11:41.240Z,60.80
2019-04-21T07:14:27.254Z,61.29
2019-04-21T07:16:46.345Z,61.08
2019-04-21T07:21:46.857Z,60.59
2019-04-21T07:24:20.177Z,60.87
2019-04-21T07:26:50.806Z,58.12
2019-04-21T07:29:25.887Z,59.19
2019-04-21T07:31:55.632Z,54.67
2019-04-21T07:34:21.374Z,54.90
2019-04-21T07:39:18.033Z,54.64
2019-04-21T07:41:45.088Z,55.21
2019-04-21T07:44:13.656Z,54.68
2019-04-21T07:46:47.227Z,55.25
2019-04-21T07:49:46.253Z,49.13
2019-04-21T07:52:24.812Z,48.53
2019-04-21T07:55:05.559Z,46.06
2019-04-21T07:57:18.806Z,44.19
2019-04-21T08:00:08.395Z,45.06
2019-04-21T08:02:30.803Z,46.21
2019-04-21T08:05:10.256Z,44.86
2019-04-21T08:07:46.226Z,45.73
2019-04-21T08:09:57.199Z,43.82
2019-04-21T08:12:24.226Z,43.69
2019-04-21T08:15:07.709Z,43.54
2019-04-21T08:17:36.614Z,46.31
2019-04-21T08:20:09.292Z,47.75
2019-04-21T08:22:44.204Z,46.31
2019-04-21T08:25:09.209Z,45.16
2019-04-21T08:28:02.255Z,43.77
2019-04-21T08:30:10.993Z,44.04
2019-04-21T08:32:51.467Z,44.56
2019-04-21T08:35:48.770Z,42.09
2019-04-21T08:37:43.271Z,40.54
2019-04-21T08:40:28.936Z,38.70
2019-04-21T08:42:54.086Z,36.19
2019-04-21T08:45:22.042Z,38.72
2019-04-21T08:47:51.951Z,41.00
2019-04-21T08:50:21.104Z,39.17
2019-04-21T08:52:58.327Z,36.55
2019-04-21T08:55:40.038Z,35.78
2019-04-21T08:58:22.651Z,34.21
2019-04-21T09:00:56.258Z,34.22
2019-04-21T09:03:37.401Z,34.89
2019-04-21T09:06:07.609Z,40.31
2019-04-21T09:08:33.108Z,41.73
2019-04-21T09:11:05.725Z,41.76
2019-04-21T09:13:36.955Z,41.68
2019-04-21T09:16:03.796Z,41.29
2019-04-21T09:18:32.511Z,41.43
2019-04-21T09:21:13.534Z,41.89
2019-04-21T09:23:43.690Z,41.08
2019-04-21T09:26:13.836Z,41.42
2019-04-21T09:28:42.369Z,41.68
2019-04-21T09:31:00.870Z,41.37
2019-04-21T09:33:35.780Z,40.51
2019-04-21T09:36:02.613Z,37.80
2019-04-21T09:38:38.007Z,36.49
2019-04-21T09:41:02.660Z,37.09
2019-04-21T09:43:40.039Z,37.18
2019-04-21T09:46:03.977Z,35.96
2019-04-21T09:48:49.111Z,33.88
2019-04-21T09:51:06.464Z,33.30
2019-04-21T09:53:38.775Z,35.34
2019-04-21T09:56:11.794Z,37.89
2019-04-21T09:58:43.720Z,36.43
2019-04-21T10:01:19.767Z,34.14
2019-04-21T10:03:46.650Z,34.06
2019-04-21T10:06:14.406Z,32.80
2019-04-21T10:08:42.905Z,34.69
2019-04-21T10:11:12.356Z,32.25
2019-04-21T10:13:41.993Z,30.03
2019-04-21T10:16:13.315Z,30.15
2019-04-21T10:18:43.850Z,29.70
2019-04-21T10:21:13.656Z,30.59
2019-04-21T10:23:43.828Z,26.49
2019-04-21T10:26:14.547Z,25.76
2019-04-21T10:28:44.036Z,25.22
2019-04-21T10:31:14.418Z,25.70
2019-04-21T10:33:44.301Z,28.80
2019-04-21T10:36:15.108Z,30.35
2019-04-21T10:38:51.297Z,30.53
2019-04-21T10:41:17.004Z,28.76
2019-04-21T10:43:47.166Z,28.02
2019-04-21T10:46:17.042Z,27.27
2019-04-21T10:48:46.791Z,26.12
2019-04-21T10:51:17.162Z,25.87
2019-04-21T10:53:53.882Z,27.24
2019-04-21T10:56:30.715Z,25.98
2019-04-21T10:58:54.184Z,26.87
2019-04-21T11:01:25.477Z,28.43
2019-04-21T11:03:58.919Z,26.44
2019-04-21T11:06:28.854Z,28.61
2019-04-21T11:09:01.041Z,27.78
2019-04-21T11:11:30.172Z,30.03
2019-04-21T11:14:00.085Z,26.96
2019-04-21T11:16:30.845Z,25.79
2019-04-21T11:19:00.489Z,25.79
2019-04-21T11:21:31.024Z,24.78
2019-04-21T11:24:01.913Z,26.03
2019-04-21T11:26:31.987Z,25.32
2019-04-21T11:29:01.221Z,27.46
2019-04-21T11:31:31.284Z,24.64
2019-04-21T11:34:01.032Z,25.46
2019-04-21T11:36:31.359Z,22.08
2019-04-21T11:39:19.367Z,23.76
2019-04-21T11:41:36.970Z,23.75
2019-04-21T11:44:07.781Z,24.54
2019-04-21T11:46:38.341Z,24.21
2019-04-21T11:49:08.448Z,24.11
2019-04-21T11:51:38.204Z,23.74
2019-04-21T11:54:08.767Z,24.51
2019-04-21T11:56:38.894Z,24.73
2019-04-21T11:59:10.037Z,23.61
2019-04-21T12:01:39.650Z,23.11
2019-04-21T12:04:09.773Z,24.77
2019-04-21T12:06:44.449Z,25.37
2019-04-21T12:09:11.835Z,25.13
2019-04-21T12:11:43.188Z,25.74
2019-04-21T12:14:12.643Z,26.55
2019-04-21T12:16:43.302Z,26.62
2019-04-21T12:19:12.919Z,27.79
2019-04-21T12:21:53.269Z,27.91
2019-04-21T12:24:15.202Z,28.94
2019-04-21T12:26:46.348Z,28.62
2019-04-21T12:29:16.679Z,28.86
2019-04-21T12:31:59.610Z,28.89
2019-04-21T12:34:30.222Z,28.60
2019-04-21T12:37:00.855Z,29.47
2019-04-21T12:39:30.643Z,28.84
2019-04-21T12:42:00.824Z,27.66
2019-04-21T12:44:31.831Z,27.59
2019-04-21T12:47:01.726Z,27.41
2019-04-21T12:49:31.789Z,27.42
2019-04-21T12:52:02.013Z,27.43
2019-04-21T12:54:33.126Z,28.20
2019-04-21T12:57:03.459Z,28.34
2019-04-21T12:59:34.524Z,28.56
2019-04-21T13:02:04.371Z,26.33
2019-04-21T13:04:33.728Z,27.38
2019-04-21T13:07:03.691Z,27.83
2019-04-21T13:09:34.270Z,27.61
2019-04-21T13:12:04.893Z,27.40
2019-04-21T13:14:34.292Z,28.23
2019-04-21T13:17:05.670Z,28.55
2019-04-21T13:19:35.748Z,28.41
2019-04-21T13:22:05.845Z,27.69
2019-04-21T13:24:35.849Z,28.44
2019-04-21T13:27:07.452Z,27.07
2019-04-21T13:29:37.015Z,27.34
2019-04-21T13:32:08.409Z,26.72
2019-04-21T13:34:37.936Z,27.49
2019-04-21T13:37:07.715Z,26.66
2019-04-21T13:40:23.640Z,26.21
2019-04-21T13:42:40.713Z,26.71
2019-04-21T13:45:10.082Z,26.06
2019-04-21T13:47:40.773Z,26.21
2019-04-21T13:50:11.208Z,25.67
2019-04-21T13:52:40.882Z,26.40
2019-04-21T13:55:11.812Z,27.67
2019-04-21T13:57:41.299Z,25.68
2019-04-21T14:00:13.069Z,26.08
2019-04-21T14:02:42.754Z,25.62
2019-04-21T14:05:15.766Z,25.71
2019-04-21T14:07:46.203Z,23.79
2019-04-21T14:10:17.912Z,24.57
2019-04-21T14:12:48.943Z,24.63
2019-04-21T14:15:20.470Z,23.38
2019-04-21T14:17:50.917Z,24.28
2019-04-21T14:20:21.570Z,24.84
2019-04-21T14:22:51.918Z,23.23
2019-04-21T14:25:21.748Z,23.52
2019-04-21T14:27:52.554Z,24.36
2019-04-21T14:30:26.309Z,24.32
2019-04-21T14:32:56.190Z,24.06
2019-04-21T14:35:27.140Z,24.23
2019-04-21T14:37:56.628Z,25.34
2019-04-21T14:40:29.506Z,26.27
2019-04-21T14:42:58.349Z,25.36
2019-04-21T14:45:30.459Z,24.91
2019-04-21T14:48:19.041Z,25.22
2019-04-21T14:51:06.587Z,26.19
2019-04-21T14:53:38.130Z,25.59
2019-04-21T14:56:08.818Z,26.15
2019-04-21T14:58:39.246Z,26.16
2019-04-21T15:01:10.403Z,25.77
2019-04-21T15:03:41.727Z,25.34
2019-04-21T15:06:11.659Z,26.48
2019-04-21T15:08:41.216Z,26.85
2019-04-21T15:11:11.725Z,26.53
2019-04-21T15:13:41.762Z,26.20
2019-04-21T15:16:11.218Z,26.67
2019-04-21T15:18:41.002Z,26.30
2019-04-21T15:21:11.126Z,25.96
2019-04-21T15:23:40.700Z,26.63
2019-04-21T15:26:10.388Z,25.00
2019-04-21T15:28:42.297Z,24.91
2019-04-21T15:31:12.697Z,24.85
2019-04-21T15:33:43.171Z,23.51
2019-04-21T15:36:13.412Z,23.64
2019-04-21T15:38:43.791Z,25.18
2019-04-21T15:41:14.382Z,25.11
2019-04-21T15:43:44.738Z,24.79
2019-04-21T15:46:15.086Z,25.39
2019-04-21T15:48:44.893Z,23.78
2019-04-21T15:51:15.718Z,24.41
2019-04-21T15:53:47.876Z,24.53
2019-04-21T15:56:20.581Z,22.98
2019-04-21T15:59:01.087Z,24.37
2019-04-21T16:01:32.495Z,23.04
2019-04-21T16:04:02.880Z,23.20
2019-04-21T16:06:37.400Z,23.61
2019-04-21T16:09:16.153Z,23.33
2019-04-21T16:11:40.222Z,23.71
2019-04-21T16:14:10.176Z,23.39
2019-04-21T16:16:41.038Z,23.73
2019-04-21T16:19:12.328Z,22.69
2019-04-21T16:21:44.391Z,23.34
2019-04-21T16:24:14.151Z,22.95
2019-04-21T16:26:44.579Z,22.19
2019-04-21T16:29:15.267Z,22.37
2019-04-21T16:31:44.918Z,22.55
2019-04-21T16:34:15.701Z,22.53
2019-04-21T16:36:45.705Z,22.83
2019-04-21T16:39:15.588Z,22.74
2019-04-21T16:41:46.517Z,23.07
2019-04-21T16:44:16.887Z,23.29
2019-04-21T16:46:47.511Z,22.96
2019-04-21T16:49:17.896Z,22.59
2019-04-21T16:51:49.994Z,22.25
2019-04-21T16:54:21.999Z,23.23
2019-04-21T16:56:54.094Z,23.00
2019-04-21T16:59:26.328Z,23.04
2019-04-21T17:01:56.542Z,23.07
2019-04-21T17:04:26.491Z,23.33
2019-04-21T17:06:55.994Z,23.77
2019-04-21T17:09:26.559Z,24.14
2019-04-21T17:11:59.854Z,24.25
2019-04-21T17:14:43.679Z,24.52
2019-04-21T17:17:20.501Z,24.92
2019-04-21T17:19:32.870Z,24.00
2019-04-21T17:22:01.594Z,24.17
2019-04-21T17:24:32.562Z,24.02
2019-04-21T17:27:02.877Z,24.15
2019-04-21T17:29:32.587Z,24.70
2019-04-21T17:32:04.789Z,24.93
2019-04-21T17:34:35.516Z,25.28
2019-04-21T17:37:05.541Z,25.17
2019-04-21T17:39:36.623Z,25.05
2019-04-21T17:42:18.345Z,24.66
2019-04-21T17:44:39.207Z,24.87
2019-04-21T17:47:21.428Z,24.80
2019-04-21T17:49:41.105Z,25.14
2019-04-21T17:52:22.147Z,25.51
2019-04-21T17:55:12.268Z,25.04
2019-04-21T17:57:54.545Z,25.71
2019-04-21T18:00:42.789Z,26.12
2019-04-21T18:02:59.000Z,26.45
2019-04-21T18:05:32.977Z,26.72
2019-04-21T18:07:54.829Z,26.89
2019-04-21T18:10:33.821Z,27.31
2019-04-21T18:12:55.359Z,27.54
2019-04-21T18:15:35.998Z,28.41
2019-04-21T18:17:50.233Z,29.30
2019-04-21T18:20:25.843Z,29.54
2019-04-21T18:22:58.570Z,31.25
2019-04-21T18:25:44.852Z,32.35
2019-04-21T18:28:04.820Z,31.66
2019-04-21T18:30:44.552Z,34.01
2019-04-21T18:33:22.872Z,31.82
2019-04-21T18:36:00.660Z,34.55
2019-04-21T18:39:04.136Z,35.70
2019-04-21T18:41:30.218Z,36.03
2019-04-21T18:44:53.733Z,36.74
2019-04-21T18:47:16.551Z,37.98
2019-04-21T18:49:29.139Z,38.17
2019-04-21T18:52:18.148Z,39.54
2019-04-21T18:54:57.580Z,40.17
2019-04-21T18:57:19.555Z,40.60
2019-04-21T18:59:45.128Z,39.64
2019-04-21T19:02:17.783Z,40.92
2019-04-21T19:04:44.167Z,41.40
2019-04-21T19:07:25.233Z,41.25
2019-04-21T19:10:20.492Z,40.92
2019-04-21T19:14:58.105Z,42.54
2019-04-21T19:22:38.611Z,44.14
2019-04-21T19:25:13.158Z,44.87
2019-04-21T19:27:38.321Z,44.58
2019-04-21T19:32:39.058Z,45.09
2019-04-21T19:34:59.500Z,45.57
2019-04-21T19:37:28.872Z,43.59
2019-04-21T19:40:08.733Z,44.19
2019-04-21T19:42:38.332Z,45.24
2019-04-21T19:45:20.637Z,45.45
2019-04-21T19:47:50.354Z,45.77
2019-04-21T19:50:26.481Z,46.11
2019-04-21T19:52:43.770Z,46.63
2019-04-21T19:55:09.754Z,46.63
2019-04-21T19:57:39.201Z,47.36
2019-04-21T20:00:11.249Z,47.97
2019-04-21T20:02:40.838Z,48.09
2019-04-21T20:05:16.503Z,48.71
2019-04-21T20:08:02.942Z,48.48
2019-04-21T20:10:35.242Z,49.11
2019-04-21T20:13:02.847Z,49.10
2019-04-21T20:15:42.130Z,49.33
2019-04-21T20:18:01.870Z,49.87
2019-04-21T20:20:19.362Z,50.02
2019-04-21T20:22:51.975Z,50.24
2019-04-21T20:25:23.261Z,50.48
2019-04-21T20:28:01.343Z,50.78
2019-04-21T20:30:42.309Z,50.75
2019-04-21T20:33:36.969Z,51.37
2019-04-21T20:35:52.089Z,51.04
2019-04-21T20:38:12.341Z,51.07
2019-04-21T20:40:40.273Z,49.96
2019-04-21T20:43:16.454Z,48.87
2019-04-21T20:45:54.120Z,49.53
2019-04-21T20:48:13.869Z,49.47
2019-04-21T20:50:49.925Z,48.84
2019-04-21T20:53:25.113Z,50.31
2019-04-21T20:55:48.985Z,50.65
2019-04-21T20:58:25.405Z,50.95
2019-04-21T21:01:09.365Z,50.58
2019-04-21T21:03:24.273Z,50.33
2019-04-21T21:05:51.528Z,50.52
2019-04-21T21:08:31.416Z,51.30
2019-04-21T21:10:58.746Z,51.66
2019-04-21T21:13:33.715Z,51.44
2019-04-21T21:16:10.271Z,52.17
2019-04-21T21:18:56.454Z,52.18
2019-04-21T21:21:09.498Z,52.53
2019-04-21T21:23:37.093Z,53.35
2019-04-21T21:26:10.683Z,53.55
2019-04-21T21:28:32.672Z,53.62
2019-04-21T21:31:11.747Z,53.90
2019-04-21T21:33:54.297Z,54.03
2019-04-21T21:36:13.989Z,54.18
2019-04-21T21:38:42.885Z,55.11
2019-04-21T21:41:07.621Z,56.11
2019-04-21T21:43:29.432Z,55.74
2019-04-21T21:46:02.638Z,56.20
2019-04-21T21:48:40.823Z,55.71
2019-04-21T21:51:05.860Z,56.04
2019-04-21T21:53:34.147Z,54.98
2019-04-21T21:56:02.825Z,56.50
2019-04-21T21:58:37.162Z,56.51
2019-04-21T22:01:08.194Z,54.78
2019-04-21T22:03:40.841Z,54.90
2019-04-21T22:06:10.814Z,53.94
2019-04-21T22:08:38.631Z,55.18
2019-04-21T22:11:08.911Z,53.31
2019-04-21T22:13:47.615Z,52.90
2019-04-21T22:16:13.979Z,51.86
2019-04-21T22:19:03.219Z,50.39
2019-04-21T22:21:34.235Z,50.82
2019-04-21T22:23:54.937Z,48.50
2019-04-21T22:26:15.494Z,49.32
2019-04-21T22:28:45.691Z,47.30
2019-04-21T22:31:19.630Z,47.30
2019-04-21T22:33:50.306Z,47.30
2019-04-21T22:36:29.930Z,46.23
2019-04-21T22:39:09.015Z,45.17
2019-04-21T22:41:28.887Z,45.20
2019-04-21T22:43:52.348Z,45.04
2019-04-21T22:46:22.354Z,45.61
2019-04-21T22:48:56.534Z,45.69
2019-04-21T22:51:30.528Z,45.75
2019-04-21T22:53:57.617Z,46.29
2019-04-21T22:56:30.083Z,45.89
2019-04-21T22:58:57.114Z,46.16
2019-04-21T23:01:33.393Z,46.60
2019-04-21T23:04:01.352Z,46.89
2019-04-21T23:06:32.693Z,47.15
2019-04-21T23:09:01.160Z,47.37
2019-04-21T23:11:35.881Z,47.46
2019-04-21T23:14:06.527Z,47.63
2019-04-21T23:16:36.263Z,47.81
2019-04-21T23:19:21.212Z,48.50
2019-04-21T23:21:55.382Z,48.63
2019-04-21T23:24:33.110Z,49.20
2019-04-21T23:26:51.691Z,49.16
2019-04-21T23:29:39.503Z,49.25
2019-04-21T23:32:00.796Z,49.31
2019-04-21T23:34:19.719Z,49.66
2019-04-21T23:36:53.108Z,49.92
2019-04-21T23:39:21.577Z,50.29
2019-04-21T23:41:48.862Z,50.55
2019-04-21T23:44:19.034Z,51.09
2019-04-21T23:46:51.088Z,50.80
2019-04-21T23:49:29.661Z,51.17
2019-04-21T23:51:58.376Z,51.82
2019-04-21T23:54:19.803Z,51.68
2019-04-21T23:56:49.529Z,51.75
2019-04-21T23:59:20.592Z,51.70
